sensor_id;sensor_type;location;lat;lon;timestamp;temperature;humidity
69679;DHT22;56915;52.046;4.854;2023-03-04T00:02:17;6.20;76.10
69679;DHT22;56915;52.046;4.854;2023-03-04T00:04:44;6.20;76.30
69679;DHT22;56915;52.046;4.854;2023-03-04T00:07:11;6.10;76.60
69679;DHT22;56915;52.046;4.854;2023-03-04T00:09:43;6.10;77.10
69679;DHT22;56915;52.046;4.854;2023-03-04T00:12:10;6.10;77.50
69679;DHT22;56915;52.046;4.854;2023-03-04T00:14:37;6.10;77.90
69679;DHT22;56915;52.046;4.854;2023-03-04T00:17:04;6.10;78.40
69679;DHT22;56915;52.046;4.854;2023-03-04T00:19:31;6.10;78.70
69679;DHT22;56915;52.046;4.854;2023-03-04T00:21:58;6.10;79.00
69679;DHT22;56915;52.046;4.854;2023-03-04T00:24:24;6.10;79.90
69679;DHT22;56915;52.046;4.854;2023-03-04T00:26:51;6.10;79.40
69679;DHT22;56915;52.046;4.854;2023-03-04T00:29:18;6.10;79.50
69679;DHT22;56915;52.046;4.854;2023-03-04T00:31:45;6.10;79.70
69679;DHT22;56915;52.046;4.854;2023-03-04T00:34:11;6.10;79.80
69679;DHT22;56915;52.046;4.854;2023-03-04T00:36:38;6.10;80.50
69679;DHT22;56915;52.046;4.854;2023-03-04T00:39:05;6.10;79.70
69679;DHT22;56915;52.046;4.854;2023-03-04T00:41:32;6.10;79.80
69679;DHT22;56915;52.046;4.854;2023-03-04T00:43:59;6.10;79.90
69679;DHT22;56915;52.046;4.854;2023-03-04T00:46:25;6.10;80.60
69679;DHT22;56915;52.046;4.854;2023-03-04T00:48:52;6.10;79.50
69679;DHT22;56915;52.046;4.854;2023-03-04T00:51:19;6.10;79.00
69679;DHT22;56915;52.046;4.854;2023-03-04T00:53:46;6.10;78.60
69679;DHT22;56915;52.046;4.854;2023-03-04T00:56:13;6.10;78.80
69679;DHT22;56915;52.046;4.854;2023-03-04T00:58:40;6.10;78.50
69679;DHT22;56915;52.046;4.854;2023-03-04T01:01:07;6.10;78.50
69679;DHT22;56915;52.046;4.854;2023-03-04T01:03:34;6.10;78.60
69679;DHT22;56915;52.046;4.854;2023-03-04T01:06:00;6.10;78.20
69679;DHT22;56915;52.046;4.854;2023-03-04T01:08:27;6.10;77.40
69679;DHT22;56915;52.046;4.854;2023-03-04T01:10:54;6.10;77.20
69679;DHT22;56915;52.046;4.854;2023-03-04T01:13:21;6.10;77.20
69679;DHT22;56915;52.046;4.854;2023-03-04T01:15:48;6.10;77.00
69679;DHT22;56915;52.046;4.854;2023-03-04T01:18:14;6.10;77.10
69679;DHT22;56915;52.046;4.854;2023-03-04T01:20:41;6.10;77.00
69679;DHT22;56915;52.046;4.854;2023-03-04T01:23:08;6.10;76.50
69679;DHT22;56915;52.046;4.854;2023-03-04T01:25:35;6.10;77.10
69679;DHT22;56915;52.046;4.854;2023-03-04T01:28:02;6.10;76.40
69679;DHT22;56915;52.046;4.854;2023-03-04T01:30:29;6.10;76.80
69679;DHT22;56915;52.046;4.854;2023-03-04T01:32:56;6.10;77.90
69679;DHT22;56915;52.046;4.854;2023-03-04T01:35:23;6.10;77.70
69679;DHT22;56915;52.046;4.854;2023-03-04T01:37:49;6.00;78.20
69679;DHT22;56915;52.046;4.854;2023-03-04T01:40:16;6.00;78.70
69679;DHT22;56915;52.046;4.854;2023-03-04T01:42:43;6.10;79.20
69679;DHT22;56915;52.046;4.854;2023-03-04T01:45:15;6.00;79.30
69679;DHT22;56915;52.046;4.854;2023-03-04T01:47:45;6.00;79.60
69679;DHT22;56915;52.046;4.854;2023-03-04T01:50:23;6.00;79.50
69679;DHT22;56915;52.046;4.854;2023-03-04T01:52:51;6.00;80.00
69679;DHT22;56915;52.046;4.854;2023-03-04T01:55:19;6.00;78.80
69679;DHT22;56915;52.046;4.854;2023-03-04T01:57:48;6.00;78.90
69679;DHT22;56915;52.046;4.854;2023-03-04T02:00:32;6.00;78.80
69679;DHT22;56915;52.046;4.854;2023-03-04T02:03:04;6.00;79.00
69679;DHT22;56915;52.046;4.854;2023-03-04T02:05:40;6.00;79.70
69679;DHT22;56915;52.046;4.854;2023-03-04T02:08:08;6.00;79.30
69679;DHT22;56915;52.046;4.854;2023-03-04T02:10:36;6.00;79.60
69679;DHT22;56915;52.046;4.854;2023-03-04T02:13:03;6.00;80.00
69679;DHT22;56915;52.046;4.854;2023-03-04T02:15:30;6.00;80.10
69679;DHT22;56915;52.046;4.854;2023-03-04T02:17:57;6.00;80.90
69679;DHT22;56915;52.046;4.854;2023-03-04T02:20:41;6.00;79.70
69679;DHT22;56915;52.046;4.854;2023-03-04T02:26:04;6.00;77.40
69679;DHT22;56915;52.046;4.854;2023-03-04T02:28:32;6.00;76.90
69679;DHT22;56915;52.046;4.854;2023-03-04T02:30:59;6.10;77.30
69679;DHT22;56915;52.046;4.854;2023-03-04T02:33:26;6.10;76.20
69679;DHT22;56915;52.046;4.854;2023-03-04T02:35:53;6.10;76.40
69679;DHT22;56915;52.046;4.854;2023-03-04T02:38:20;6.10;77.20
69679;DHT22;56915;52.046;4.854;2023-03-04T02:40:49;6.10;76.70
69679;DHT22;56915;52.046;4.854;2023-03-04T02:43:17;6.10;76.80
69679;DHT22;56915;52.046;4.854;2023-03-04T02:45:46;6.10;76.90
69679;DHT22;56915;52.046;4.854;2023-03-04T02:48:19;6.10;75.80
69679;DHT22;56915;52.046;4.854;2023-03-04T02:50:50;6.10;75.50
69679;DHT22;56915;52.046;4.854;2023-03-04T02:53:18;6.10;74.80
69679;DHT22;56915;52.046;4.854;2023-03-04T02:55:47;6.10;74.50
69679;DHT22;56915;52.046;4.854;2023-03-04T02:58:14;6.10;73.80
69679;DHT22;56915;52.046;4.854;2023-03-04T03:00:40;6.10;74.00
69679;DHT22;56915;52.046;4.854;2023-03-04T03:03:07;6.10;74.10
69679;DHT22;56915;52.046;4.854;2023-03-04T03:05:35;6.10;74.00
69679;DHT22;56915;52.046;4.854;2023-03-04T03:08:03;6.10;73.60
69679;DHT22;56915;52.046;4.854;2023-03-04T03:10:30;6.10;73.60
69679;DHT22;56915;52.046;4.854;2023-03-04T03:12:57;6.10;73.20
69679;DHT22;56915;52.046;4.854;2023-03-04T03:15:24;6.00;73.10
69679;DHT22;56915;52.046;4.854;2023-03-04T03:17:51;6.10;73.70
69679;DHT22;56915;52.046;4.854;2023-03-04T03:20:18;6.10;72.50
69679;DHT22;56915;52.046;4.854;2023-03-04T03:22:45;6.10;71.90
69679;DHT22;56915;52.046;4.854;2023-03-04T03:25:13;6.10;71.60
69679;DHT22;56915;52.046;4.854;2023-03-04T03:27:41;6.10;71.90
69679;DHT22;56915;52.046;4.854;2023-03-04T03:30:10;6.10;72.30
69679;DHT22;56915;52.046;4.854;2023-03-04T03:32:37;6.10;72.60
69679;DHT22;56915;52.046;4.854;2023-03-04T03:35:05;6.10;72.60
69679;DHT22;56915;52.046;4.854;2023-03-04T03:37:32;6.10;72.90
69679;DHT22;56915;52.046;4.854;2023-03-04T03:39:58;6.10;72.90
69679;DHT22;56915;52.046;4.854;2023-03-04T03:42:25;6.10;72.70
69679;DHT22;56915;52.046;4.854;2023-03-04T03:44:52;6.10;73.10
69679;DHT22;56915;52.046;4.854;2023-03-04T03:47:19;6.10;73.60
69679;DHT22;56915;52.046;4.854;2023-03-04T03:49:46;6.10;74.00
69679;DHT22;56915;52.046;4.854;2023-03-04T03:52:12;6.00;74.10
69679;DHT22;56915;52.046;4.854;2023-03-04T03:54:39;6.00;75.10
69679;DHT22;56915;52.046;4.854;2023-03-04T03:57:06;6.00;74.80
69679;DHT22;56915;52.046;4.854;2023-03-04T03:59:33;6.00;74.90
69679;DHT22;56915;52.046;4.854;2023-03-04T04:02:00;6.00;74.90
69679;DHT22;56915;52.046;4.854;2023-03-04T04:04:27;6.00;75.10
69679;DHT22;56915;52.046;4.854;2023-03-04T04:06:54;6.00;75.20
69679;DHT22;56915;52.046;4.854;2023-03-04T04:09:20;6.00;75.40
69679;DHT22;56915;52.046;4.854;2023-03-04T04:11:48;6.00;75.80
69679;DHT22;56915;52.046;4.854;2023-03-04T04:14:15;6.00;76.80
69679;DHT22;56915;52.046;4.854;2023-03-04T04:16:41;6.00;76.40
69679;DHT22;56915;52.046;4.854;2023-03-04T04:19:16;6.00;77.40
69679;DHT22;56915;52.046;4.854;2023-03-04T04:21:44;6.00;76.90
69679;DHT22;56915;52.046;4.854;2023-03-04T04:24:11;6.00;77.30
69679;DHT22;56915;52.046;4.854;2023-03-04T04:26:38;6.00;78.40
69679;DHT22;56915;52.046;4.854;2023-03-04T04:29:07;6.00;78.10
69679;DHT22;56915;52.046;4.854;2023-03-04T04:31:34;5.90;78.60
69679;DHT22;56915;52.046;4.854;2023-03-04T04:34:01;5.90;79.10
69679;DHT22;56915;52.046;4.854;2023-03-04T04:36:28;5.90;79.80
69679;DHT22;56915;52.046;4.854;2023-03-04T04:38:55;5.90;80.20
69679;DHT22;56915;52.046;4.854;2023-03-04T04:41:30;5.90;81.60
69679;DHT22;56915;52.046;4.854;2023-03-04T04:43:57;5.90;80.60
69679;DHT22;56915;52.046;4.854;2023-03-04T04:46:25;5.90;80.30
69679;DHT22;56915;52.046;4.854;2023-03-04T04:48:52;5.90;79.40
69679;DHT22;56915;52.046;4.854;2023-03-04T04:51:19;5.90;79.40
69679;DHT22;56915;52.046;4.854;2023-03-04T04:53:45;5.90;79.70
69679;DHT22;56915;52.046;4.854;2023-03-04T04:56:15;5.90;80.50
69679;DHT22;56915;52.046;4.854;2023-03-04T04:58:42;5.90;79.80
69679;DHT22;56915;52.046;4.854;2023-03-04T05:01:10;5.90;80.00
69679;DHT22;56915;52.046;4.854;2023-03-04T05:03:37;5.90;79.50
69679;DHT22;56915;52.046;4.854;2023-03-04T05:06:05;5.90;80.40
69679;DHT22;56915;52.046;4.854;2023-03-04T05:08:33;5.90;79.90
69679;DHT22;56915;52.046;4.854;2023-03-04T05:11:00;5.90;79.90
69679;DHT22;56915;52.046;4.854;2023-03-04T05:13:27;5.90;80.30
69679;DHT22;56915;52.046;4.854;2023-03-04T05:15:55;5.90;80.50
69679;DHT22;56915;52.046;4.854;2023-03-04T05:18:24;5.90;81.30
69679;DHT22;56915;52.046;4.854;2023-03-04T05:20:57;5.90;81.50
69679;DHT22;56915;52.046;4.854;2023-03-04T05:23:25;5.90;80.70
69679;DHT22;56915;52.046;4.854;2023-03-04T05:25:51;5.90;80.80
69679;DHT22;56915;52.046;4.854;2023-03-04T05:28:19;5.90;81.60
69679;DHT22;56915;52.046;4.854;2023-03-04T05:30:46;5.90;81.10
69679;DHT22;56915;52.046;4.854;2023-03-04T05:33:14;5.90;81.60
69679;DHT22;56915;52.046;4.854;2023-03-04T05:35:42;5.90;81.90
69679;DHT22;56915;52.046;4.854;2023-03-04T05:38:12;5.90;82.80
69679;DHT22;56915;52.046;4.854;2023-03-04T05:40:40;5.90;82.30
69679;DHT22;56915;52.046;4.854;2023-03-04T05:43:07;5.90;83.10
69679;DHT22;56915;52.046;4.854;2023-03-04T05:45:34;5.90;82.60
69679;DHT22;56915;52.046;4.854;2023-03-04T05:48:01;5.90;82.90
69679;DHT22;56915;52.046;4.854;2023-03-04T05:50:29;5.90;83.60
69679;DHT22;56915;52.046;4.854;2023-03-04T05:52:56;5.80;85.00
69679;DHT22;56915;52.046;4.854;2023-03-04T05:55:23;5.70;87.60
69679;DHT22;56915;52.046;4.854;2023-03-04T05:57:50;5.70;89.80
69679;DHT22;56915;52.046;4.854;2023-03-04T06:00:17;5.60;90.30
69679;DHT22;56915;52.046;4.854;2023-03-04T06:02:44;5.60;90.80
69679;DHT22;56915;52.046;4.854;2023-03-04T06:05:12;5.60;90.90
69679;DHT22;56915;52.046;4.854;2023-03-04T06:07:40;5.60;91.40
69679;DHT22;56915;52.046;4.854;2023-03-04T06:10:11;5.60;91.40
69679;DHT22;56915;52.046;4.854;2023-03-04T06:12:38;5.60;91.80
69679;DHT22;56915;52.046;4.854;2023-03-04T06:15:05;5.60;92.10
69679;DHT22;56915;52.046;4.854;2023-03-04T06:17:32;5.60;91.90
69679;DHT22;56915;52.046;4.854;2023-03-04T06:19:59;5.60;92.10
69679;DHT22;56915;52.046;4.854;2023-03-04T06:22:26;5.60;92.20
69679;DHT22;56915;52.046;4.854;2023-03-04T06:24:52;5.60;92.10
69679;DHT22;56915;52.046;4.854;2023-03-04T06:27:19;5.70;92.10
69679;DHT22;56915;52.046;4.854;2023-03-04T06:29:46;5.70;92.20
69679;DHT22;56915;52.046;4.854;2023-03-04T06:32:13;5.70;92.20
69679;DHT22;56915;52.046;4.854;2023-03-04T06:34:40;5.70;92.20
69679;DHT22;56915;52.046;4.854;2023-03-04T06:37:07;5.80;92.20
69679;DHT22;56915;52.046;4.854;2023-03-04T06:39:33;5.80;92.40
69679;DHT22;56915;52.046;4.854;2023-03-04T06:42:00;5.80;92.10
69679;DHT22;56915;52.046;4.854;2023-03-04T06:44:27;5.90;92.00
69679;DHT22;56915;52.046;4.854;2023-03-04T06:46:54;5.90;91.90
69679;DHT22;56915;52.046;4.854;2023-03-04T06:49:21;5.90;91.80
69679;DHT22;56915;52.046;4.854;2023-03-04T06:51:48;5.90;91.70
69679;DHT22;56915;52.046;4.854;2023-03-04T06:54:15;6.00;91.70
69679;DHT22;56915;52.046;4.854;2023-03-04T06:56:41;6.00;91.70
69679;DHT22;56915;52.046;4.854;2023-03-04T06:59:08;6.00;91.60
69679;DHT22;56915;52.046;4.854;2023-03-04T07:01:35;6.10;92.10
69679;DHT22;56915;52.046;4.854;2023-03-04T07:04:02;6.10;91.80
69679;DHT22;56915;52.046;4.854;2023-03-04T07:06:29;6.20;91.70
69679;DHT22;56915;52.046;4.854;2023-03-04T07:08:56;6.20;91.70
69679;DHT22;56915;52.046;4.854;2023-03-04T07:11:23;6.20;91.30
69679;DHT22;56915;52.046;4.854;2023-03-04T07:13:52;6.20;91.30
69679;DHT22;56915;52.046;4.854;2023-03-04T07:16:20;6.30;91.30
69679;DHT22;56915;52.046;4.854;2023-03-04T07:18:48;6.30;91.40
69679;DHT22;56915;52.046;4.854;2023-03-04T07:21:16;6.40;91.00
69679;DHT22;56915;52.046;4.854;2023-03-04T07:23:43;6.40;90.80
69679;DHT22;56915;52.046;4.854;2023-03-04T07:26:10;6.40;90.70
69679;DHT22;56915;52.046;4.854;2023-03-04T07:28:36;6.40;90.00
69679;DHT22;56915;52.046;4.854;2023-03-04T07:31:36;6.50;89.70
69679;DHT22;56915;52.046;4.854;2023-03-04T07:34:05;6.60;88.40
69679;DHT22;56915;52.046;4.854;2023-03-04T07:36:34;6.70;87.80
69679;DHT22;56915;52.046;4.854;2023-03-04T07:39:01;6.80;86.90
69679;DHT22;56915;52.046;4.854;2023-03-04T07:41:28;6.80;86.10
69679;DHT22;56915;52.046;4.854;2023-03-04T07:43:56;6.90;84.90
69679;DHT22;56915;52.046;4.854;2023-03-04T07:46:23;6.80;85.40
69679;DHT22;56915;52.046;4.854;2023-03-04T07:48:51;6.80;86.20
69679;DHT22;56915;52.046;4.854;2023-03-04T07:51:20;6.80;88.90
69679;DHT22;56915;52.046;4.854;2023-03-04T07:53:49;6.90;90.30
69679;DHT22;56915;52.046;4.854;2023-03-04T07:56:22;6.90;90.10
69679;DHT22;56915;52.046;4.854;2023-03-04T07:58:50;7.00;90.20
69679;DHT22;56915;52.046;4.854;2023-03-04T08:01:22;7.10;90.40
69679;DHT22;56915;52.046;4.854;2023-03-04T08:03:50;7.20;90.40
69679;DHT22;56915;52.046;4.854;2023-03-04T08:06:19;7.30;90.90
69679;DHT22;56915;52.046;4.854;2023-03-04T08:08:47;7.40;90.30
69679;DHT22;56915;52.046;4.854;2023-03-04T08:11:18;7.50;90.10
69679;DHT22;56915;52.046;4.854;2023-03-04T08:13:45;7.60;89.30
69679;DHT22;56915;52.046;4.854;2023-03-04T08:16:17;7.70;88.10
69679;DHT22;56915;52.046;4.854;2023-03-04T08:18:47;7.70;87.70
69679;DHT22;56915;52.046;4.854;2023-03-04T08:21:15;7.80;88.60
69679;DHT22;56915;52.046;4.854;2023-03-04T08:23:46;7.90;85.80
69679;DHT22;56915;52.046;4.854;2023-03-04T08:26:34;7.90;84.50
69679;DHT22;56915;52.046;4.854;2023-03-04T08:29:07;7.90;83.10
69679;DHT22;56915;52.046;4.854;2023-03-04T08:31:35;7.90;81.80
69679;DHT22;56915;52.046;4.854;2023-03-04T08:34:03;7.80;83.40
69679;DHT22;56915;52.046;4.854;2023-03-04T08:36:32;7.80;83.80
69679;DHT22;56915;52.046;4.854;2023-03-04T08:38:59;7.80;84.60
69679;DHT22;56915;52.046;4.854;2023-03-04T08:41:26;7.80;85.90
69679;DHT22;56915;52.046;4.854;2023-03-04T08:43:53;7.90;87.70
69679;DHT22;56915;52.046;4.854;2023-03-04T08:46:22;8.00;86.50
69679;DHT22;56915;52.046;4.854;2023-03-04T08:48:49;8.10;85.00
69679;DHT22;56915;52.046;4.854;2023-03-04T08:51:16;8.00;84.30
69679;DHT22;56915;52.046;4.854;2023-03-04T08:53:44;7.80;85.40
69679;DHT22;56915;52.046;4.854;2023-03-04T08:56:12;7.50;90.20
69679;DHT22;56915;52.046;4.854;2023-03-04T08:58:40;7.20;91.70
69679;DHT22;56915;52.046;4.854;2023-03-04T09:01:09;7.10;93.10
69679;DHT22;56915;52.046;4.854;2023-03-04T09:03:37;7.00;94.10
69679;DHT22;56915;52.046;4.854;2023-03-04T09:06:05;7.10;95.20
69679;DHT22;56915;52.046;4.854;2023-03-04T09:08:33;7.20;95.30
69679;DHT22;56915;52.046;4.854;2023-03-04T09:11:00;7.30;95.20
69679;DHT22;56915;52.046;4.854;2023-03-04T09:13:29;7.40;95.40
69679;DHT22;56915;52.046;4.854;2023-03-04T09:15:57;7.60;95.30
69679;DHT22;56915;52.046;4.854;2023-03-04T09:18:24;7.70;94.90
69679;DHT22;56915;52.046;4.854;2023-03-04T09:20:51;7.80;94.50
69679;DHT22;56915;52.046;4.854;2023-03-04T09:23:19;7.80;94.30
69679;DHT22;56915;52.046;4.854;2023-03-04T09:25:46;7.80;94.80
69679;DHT22;56915;52.046;4.854;2023-03-04T09:28:15;8.00;95.20
69679;DHT22;56915;52.046;4.854;2023-03-04T09:30:42;8.30;94.90
69679;DHT22;56915;52.046;4.854;2023-03-04T09:33:10;8.70;94.50
69679;DHT22;56915;52.046;4.854;2023-03-04T09:35:37;8.90;92.80
69679;DHT22;56915;52.046;4.854;2023-03-04T09:38:04;9.10;91.20
69679;DHT22;56915;52.046;4.854;2023-03-04T09:40:44;9.10;90.60
69679;DHT22;56915;52.046;4.854;2023-03-04T09:43:21;9.10;88.30
69679;DHT22;56915;52.046;4.854;2023-03-04T09:45:53;9.30;88.30
69679;DHT22;56915;52.046;4.854;2023-03-04T09:48:23;9.40;86.90
69679;DHT22;56915;52.046;4.854;2023-03-04T09:51:10;9.60;82.80
69679;DHT22;56915;52.046;4.854;2023-03-04T09:56:37;9.50;80.00
69679;DHT22;56915;52.046;4.854;2023-03-04T09:59:14;9.40;81.10
69679;DHT22;56915;52.046;4.854;2023-03-04T10:01:48;9.40;82.00
69679;DHT22;56915;52.046;4.854;2023-03-04T10:04:25;9.50;81.90
69679;DHT22;56915;52.046;4.854;2023-03-04T10:06:55;9.60;82.90
69679;DHT22;56915;52.046;4.854;2023-03-04T10:09:27;9.60;78.90
69679;DHT22;56915;52.046;4.854;2023-03-04T10:12:11;9.30;76.90
69679;DHT22;56915;52.046;4.854;2023-03-04T10:15:02;8.80;82.00
69679;DHT22;56915;52.046;4.854;2023-03-04T10:22:46;7.40;94.70
69679;DHT22;56915;52.046;4.854;2023-03-04T10:25:18;7.40;96.00
69679;DHT22;56915;52.046;4.854;2023-03-04T10:28:01;7.60;96.40
69679;DHT22;56915;52.046;4.854;2023-03-04T10:30:52;7.90;96.10
69679;DHT22;56915;52.046;4.854;2023-03-04T10:33:25;8.20;94.80
69679;DHT22;56915;52.046;4.854;2023-03-04T10:36:00;8.30;93.90
69679;DHT22;56915;52.046;4.854;2023-03-04T10:38:37;8.30;93.30
69679;DHT22;56915;52.046;4.854;2023-03-04T10:41:16;8.30;93.70
69679;DHT22;56915;52.046;4.854;2023-03-04T10:44:14;8.50;94.70
69679;DHT22;56915;52.046;4.854;2023-03-04T10:46:47;8.80;94.10
69679;DHT22;56915;52.046;4.854;2023-03-04T10:49:16;9.30;91.70
69679;DHT22;56915;52.046;4.854;2023-03-04T10:52:34;9.60;90.90
69679;DHT22;56915;52.046;4.854;2023-03-04T10:54:47;10.10;89.10
69679;DHT22;56915;52.046;4.854;2023-03-04T11:02:48;9.90;74.60
69679;DHT22;56915;52.046;4.854;2023-03-04T11:07:55;8.90;86.90
69679;DHT22;56915;52.046;4.854;2023-03-04T11:12:58;8.70;92.70
69679;DHT22;56915;52.046;4.854;2023-03-04T11:15:27;8.70;93.30
69679;DHT22;56915;52.046;4.854;2023-03-04T11:17:58;8.80;93.10
69679;DHT22;56915;52.046;4.854;2023-03-04T11:20:32;9.10;94.00
69679;DHT22;56915;52.046;4.854;2023-03-04T11:25:47;9.90;89.30
69679;DHT22;56915;52.046;4.854;2023-03-04T11:28:21;10.20;83.80
69679;DHT22;56915;52.046;4.854;2023-03-04T11:31:06;10.10;76.00
69679;DHT22;56915;52.046;4.854;2023-03-04T11:33:42;10.00;75.30
69679;DHT22;56915;52.046;4.854;2023-03-04T11:36:30;9.90;75.90
69679;DHT22;56915;52.046;4.854;2023-03-04T11:38:59;9.90;78.70
69679;DHT22;56915;52.046;4.854;2023-03-04T11:41:35;10.20;79.50
69679;DHT22;56915;52.046;4.854;2023-03-04T11:44:07;10.40;77.70
69679;DHT22;56915;52.046;4.854;2023-03-04T11:57:55;9.90;78.80
69679;DHT22;56915;52.046;4.854;2023-03-04T12:03:39;9.60;78.20
69679;DHT22;56915;52.046;4.854;2023-03-04T12:09:08;9.10;76.40
69679;DHT22;56915;52.046;4.854;2023-03-04T12:11:59;9.10;77.90
69679;DHT22;56915;52.046;4.854;2023-03-04T12:22:59;9.70;81.20
69679;DHT22;56915;52.046;4.854;2023-03-04T12:42:44;10.40;69.90
69679;DHT22;56915;52.046;4.854;2023-03-04T12:57:10;8.80;82.40
69679;DHT22;56915;52.046;4.854;2023-03-04T13:02:55;9.20;76.50
69679;DHT22;56915;52.046;4.854;2023-03-04T13:08:14;9.60;68.90
69679;DHT22;56915;52.046;4.854;2023-03-04T13:10:42;9.80;68.00
69679;DHT22;56915;52.046;4.854;2023-03-04T13:18:44;10.40;63.30
69679;DHT22;56915;52.046;4.854;2023-03-04T13:23:39;10.60;59.90
69679;DHT22;56915;52.046;4.854;2023-03-04T13:28:42;10.70;58.80
69679;DHT22;56915;52.046;4.854;2023-03-04T13:36:04;10.60;57.20
69679;DHT22;56915;52.046;4.854;2023-03-04T13:38:37;10.50;56.70
69679;DHT22;56915;52.046;4.854;2023-03-04T13:41:23;10.30;55.80
69679;DHT22;56915;52.046;4.854;2023-03-04T13:43:55;10.10;56.90
69679;DHT22;56915;52.046;4.854;2023-03-04T13:51:41;10.00;56.70
69679;DHT22;56915;52.046;4.854;2023-03-04T13:57:18;9.80;57.00
69679;DHT22;56915;52.046;4.854;2023-03-04T13:59:55;9.80;56.80
69679;DHT22;56915;52.046;4.854;2023-03-04T14:02:23;9.80;56.80
69679;DHT22;56915;52.046;4.854;2023-03-04T14:05:00;9.80;56.90
69679;DHT22;56915;52.046;4.854;2023-03-04T14:07:32;9.80;56.20
69679;DHT22;56915;52.046;4.854;2023-03-04T14:12:44;10.00;56.90
69679;DHT22;56915;52.046;4.854;2023-03-04T14:15:18;10.00;55.80
69679;DHT22;56915;52.046;4.854;2023-03-04T14:17:50;10.00;55.90
69679;DHT22;56915;52.046;4.854;2023-03-04T14:20:39;10.00;56.20
69679;DHT22;56915;52.046;4.854;2023-03-04T14:23:29;9.90;56.40
69679;DHT22;56915;52.046;4.854;2023-03-04T14:26:14;10.00;56.90
69679;DHT22;56915;52.046;4.854;2023-03-04T14:28:45;9.90;56.70
69679;DHT22;56915;52.046;4.854;2023-03-04T14:31:18;9.90;57.10
69679;DHT22;56915;52.046;4.854;2023-03-04T14:33:53;9.90;56.80
69679;DHT22;56915;52.046;4.854;2023-03-04T14:36:25;9.70;56.60
69679;DHT22;56915;52.046;4.854;2023-03-04T14:38:58;9.60;56.90
69679;DHT22;56915;52.046;4.854;2023-03-04T14:41:38;9.50;57.20
69679;DHT22;56915;52.046;4.854;2023-03-04T14:46:59;9.20;59.30
69679;DHT22;56915;52.046;4.854;2023-03-04T14:49:35;9.10;61.30
69679;DHT22;56915;52.046;4.854;2023-03-04T14:52:03;9.00;61.80
69679;DHT22;56915;52.046;4.854;2023-03-04T14:54:41;8.90;62.80
69679;DHT22;56915;52.046;4.854;2023-03-04T14:57:26;8.80;62.70
69679;DHT22;56915;52.046;4.854;2023-03-04T14:59:55;8.70;63.00
69679;DHT22;56915;52.046;4.854;2023-03-04T15:02:39;8.60;63.60
69679;DHT22;56915;52.046;4.854;2023-03-04T15:05:10;8.50;64.20
69679;DHT22;56915;52.046;4.854;2023-03-04T15:07:53;8.50;65.30
69679;DHT22;56915;52.046;4.854;2023-03-04T15:10:26;8.50;66.30
69679;DHT22;56915;52.046;4.854;2023-03-04T15:12:56;8.70;66.80
69679;DHT22;56915;52.046;4.854;2023-03-04T15:15:43;8.80;66.90
69679;DHT22;56915;52.046;4.854;2023-03-04T15:18:21;8.80;67.30
69679;DHT22;56915;52.046;4.854;2023-03-04T15:21:00;8.80;66.60
69679;DHT22;56915;52.046;4.854;2023-03-04T15:23:29;8.80;65.70
69679;DHT22;56915;52.046;4.854;2023-03-04T15:26:02;8.80;65.50
69679;DHT22;56915;52.046;4.854;2023-03-04T15:28:37;8.70;66.00
69679;DHT22;56915;52.046;4.854;2023-03-04T15:31:05;8.60;66.10
69679;DHT22;56915;52.046;4.854;2023-03-04T15:33:32;8.60;66.40
69679;DHT22;56915;52.046;4.854;2023-03-04T15:36:03;8.50;65.70
69679;DHT22;56915;52.046;4.854;2023-03-04T15:38:30;8.40;65.70
69679;DHT22;56915;52.046;4.854;2023-03-04T15:40:57;8.40;65.30
69679;DHT22;56915;52.046;4.854;2023-03-04T15:43:25;8.30;65.60
69679;DHT22;56915;52.046;4.854;2023-03-04T15:45:52;8.30;65.80
69679;DHT22;56915;52.046;4.854;2023-03-04T15:48:19;8.40;66.00
69679;DHT22;56915;52.046;4.854;2023-03-04T15:50:48;8.40;66.40
69679;DHT22;56915;52.046;4.854;2023-03-04T15:53:26;8.40;66.70
69679;DHT22;56915;52.046;4.854;2023-03-04T15:55:54;8.30;66.90
69679;DHT22;56915;52.046;4.854;2023-03-04T15:58:21;8.30;67.60
69679;DHT22;56915;52.046;4.854;2023-03-04T16:00:47;8.20;68.10
69679;DHT22;56915;52.046;4.854;2023-03-04T16:03:17;8.10;67.30
69679;DHT22;56915;52.046;4.854;2023-03-04T16:05:47;7.90;66.20
69679;DHT22;56915;52.046;4.854;2023-03-04T16:08:18;7.80;66.50
69679;DHT22;56915;52.046;4.854;2023-03-04T16:10:47;7.60;67.20
69679;DHT22;56915;52.046;4.854;2023-03-04T16:13:19;7.60;67.80
69679;DHT22;56915;52.046;4.854;2023-03-04T16:15:47;7.50;68.00
69679;DHT22;56915;52.046;4.854;2023-03-04T16:18:14;7.60;68.80
69679;DHT22;56915;52.046;4.854;2023-03-04T16:20:46;7.60;69.20
69679;DHT22;56915;52.046;4.854;2023-03-04T16:23:17;7.80;68.90
69679;DHT22;56915;52.046;4.854;2023-03-04T16:25:47;7.90;68.70
69679;DHT22;56915;52.046;4.854;2023-03-04T16:28:18;8.10;66.80
69679;DHT22;56915;52.046;4.854;2023-03-04T16:30:45;8.10;65.80
69679;DHT22;56915;52.046;4.854;2023-03-04T16:33:13;8.10;65.20
69679;DHT22;56915;52.046;4.854;2023-03-04T16:35:44;8.00;65.20
69679;DHT22;56915;52.046;4.854;2023-03-04T16:38:25;7.80;65.30
69679;DHT22;56915;52.046;4.854;2023-03-04T16:40:55;7.70;65.70
69679;DHT22;56915;52.046;4.854;2023-03-04T16:43:25;7.60;66.00
69679;DHT22;56915;52.046;4.854;2023-03-04T16:45:52;7.60;66.10
69679;DHT22;56915;52.046;4.854;2023-03-04T16:48:18;7.50;65.30
69679;DHT22;56915;52.046;4.854;2023-03-04T16:50:46;7.50;64.00
69679;DHT22;56915;52.046;4.854;2023-03-04T16:53:34;7.50;64.20
69679;DHT22;56915;52.046;4.854;2023-03-04T16:56:10;7.40;64.60
69679;DHT22;56915;52.046;4.854;2023-03-04T16:58:37;7.40;63.90
69679;DHT22;56915;52.046;4.854;2023-03-04T17:01:04;7.40;62.50
69679;DHT22;56915;52.046;4.854;2023-03-04T17:03:31;7.40;61.60
69679;DHT22;56915;52.046;4.854;2023-03-04T17:05:58;7.40;61.70
69679;DHT22;56915;52.046;4.854;2023-03-04T17:08:25;7.30;61.80
69679;DHT22;56915;52.046;4.854;2023-03-04T17:10:52;7.30;62.00
69679;DHT22;56915;52.046;4.854;2023-03-04T17:13:19;7.20;61.50
69679;DHT22;56915;52.046;4.854;2023-03-04T17:15:45;7.20;61.60
69679;DHT22;56915;52.046;4.854;2023-03-04T17:18:13;7.20;62.30
69679;DHT22;56915;52.046;4.854;2023-03-04T17:20:40;7.10;63.50
69679;DHT22;56915;52.046;4.854;2023-03-04T17:23:07;7.10;63.50
69679;DHT22;56915;52.046;4.854;2023-03-04T17:25:34;7.10;64.00
69679;DHT22;56915;52.046;4.854;2023-03-04T17:28:01;7.00;65.20
69679;DHT22;56915;52.046;4.854;2023-03-04T17:30:28;7.00;64.90
69679;DHT22;56915;52.046;4.854;2023-03-04T17:32:54;6.90;65.30
69679;DHT22;56915;52.046;4.854;2023-03-04T17:35:21;6.90;66.10
69679;DHT22;56915;52.046;4.854;2023-03-04T17:37:48;6.90;65.70
69679;DHT22;56915;52.046;4.854;2023-03-04T17:40:15;6.80;65.80
69679;DHT22;56915;52.046;4.854;2023-03-04T17:42:42;6.80;66.10
69679;DHT22;56915;52.046;4.854;2023-03-04T17:45:09;6.70;66.00
69679;DHT22;56915;52.046;4.854;2023-03-04T17:47:36;6.70;65.70
69679;DHT22;56915;52.046;4.854;2023-03-04T17:50:03;6.60;65.70
69679;DHT22;56915;52.046;4.854;2023-03-04T17:52:32;6.60;65.90
69679;DHT22;56915;52.046;4.854;2023-03-04T17:54:59;6.50;66.50
69679;DHT22;56915;52.046;4.854;2023-03-04T17:57:26;6.50;65.80